sensor_id;sensor_type;location;lat;lon;timestamp;P1;durP1;ratioP1;P2;durP2;ratioP2
25163;SDS011;13440;50.860;13.662;2022-11-23T00:00:24;11.00;;;6.30;;
25163;SDS011;13440;50.860;13.662;2022-11-23T00:02:58;11.02;;;6.35;;
25163;SDS011;13440;50.860;13.662;2022-11-23T00:05:24;9.93;;;6.40;;
25163;SDS011;13440;50.860;13.662;2022-11-23T00:07:49;11.05;;;6.90;;
25163;SDS011;13440;50.860;13.662;2022-11-23T00:10:15;10.98;;;6.60;;
25163;SDS011;13440;50.860;13.662;2022-11-23T00:12:40;12.18;;;6.57;;
25163;SDS011;13440;50.860;13.662;2022-11-23T00:15:06;12.60;;;6.93;;
25163;SDS011;13440;50.860;13.662;2022-11-23T00:17:31;11.90;;;6.78;;
25163;SDS011;13440;50.860;13.662;2022-11-23T00:19:57;11.65;;;6.65;;
25163;SDS011;13440;50.860;13.662;2022-11-23T00:22:22;12.45;;;6.95;;
25163;SDS011;13440;50.860;13.662;2022-11-23T00:24:47;10.82;;;6.50;;
25163;SDS011;13440;50.860;13.662;2022-11-23T00:27:13;12.40;;;7.75;;
25163;SDS011;13440;50.860;13.662;2022-11-23T00:29:40;11.45;;;7.15;;
25163;SDS011;13440;50.860;13.662;2022-11-23T00:32:05;15.80;;;7.68;;
25163;SDS011;13440;50.860;13.662;2022-11-23T00:34:34;12.25;;;7.68;;
25163;SDS011;13440;50.860;13.662;2022-11-23T00:37:00;11.90;;;7.13;;
25163;SDS011;13440;50.860;13.662;2022-11-23T00:39:25;14.77;;;7.65;;
25163;SDS011;13440;50.860;13.662;2022-11-23T00:41:50;11.77;;;7.65;;
25163;SDS011;13440;50.860;13.662;2022-11-23T00:44:16;13.73;;;7.93;;
25163;SDS011;13440;50.860;13.662;2022-11-23T00:46:41;13.35;;;7.72;;
25163;SDS011;13440;50.860;13.662;2022-11-23T00:49:06;14.60;;;8.23;;
25163;SDS011;13440;50.860;13.662;2022-11-23T00:51:33;14.85;;;9.02;;
25163;SDS011;13440;50.860;13.662;2022-11-23T00:53:59;13.82;;;8.35;;
25163;SDS011;13440;50.860;13.662;2022-11-23T00:56:25;13.75;;;8.50;;
25163;SDS011;13440;50.860;13.662;2022-11-23T00:58:51;15.60;;;9.18;;
25163;SDS011;13440;50.860;13.662;2022-11-23T01:01:18;17.65;;;9.63;;
25163;SDS011;13440;50.860;13.662;2022-11-23T01:03:45;15.45;;;9.25;;
25163;SDS011;13440;50.860;13.662;2022-11-23T01:06:14;16.60;;;10.18;;
25163;SDS011;13440;50.860;13.662;2022-11-23T01:08:40;17.35;;;10.30;;
25163;SDS011;13440;50.860;13.662;2022-11-23T01:11:06;18.52;;;10.35;;
25163;SDS011;13440;50.860;13.662;2022-11-23T01:13:33;17.27;;;10.00;;
25163;SDS011;13440;50.860;13.662;2022-11-23T01:15:59;17.30;;;9.80;;
25163;SDS011;13440;50.860;13.662;2022-11-23T01:18:25;17.85;;;10.00;;
25163;SDS011;13440;50.860;13.662;2022-11-23T01:20:51;15.50;;;9.02;;
25163;SDS011;13440;50.860;13.662;2022-11-23T01:23:16;17.23;;;10.10;;
25163;SDS011;13440;50.860;13.662;2022-11-23T01:25:42;15.02;;;9.20;;
25163;SDS011;13440;50.860;13.662;2022-11-23T01:28:07;13.50;;;8.45;;
25163;SDS011;13440;50.860;13.662;2022-11-23T01:30:33;16.02;;;10.02;;
25163;SDS011;13440;50.860;13.662;2022-11-23T01:33:00;16.60;;;9.70;;
25163;SDS011;13440;50.860;13.662;2022-11-23T01:35:25;13.35;;;8.65;;
25163;SDS011;13440;50.860;13.662;2022-11-23T01:37:51;14.80;;;8.70;;
25163;SDS011;13440;50.860;13.662;2022-11-23T01:40:17;12.93;;;8.27;;
25163;SDS011;13440;50.860;13.662;2022-11-23T01:42:46;15.30;;;8.93;;
25163;SDS011;13440;50.860;13.662;2022-11-23T01:47:56;14.13;;;8.13;;
25163;SDS011;13440;50.860;13.662;2022-11-23T01:50:21;14.07;;;8.27;;
25163;SDS011;13440;50.860;13.662;2022-11-23T01:52:46;14.05;;;8.82;;
25163;SDS011;13440;50.860;13.662;2022-11-23T01:55:12;13.25;;;8.27;;
25163;SDS011;13440;50.860;13.662;2022-11-23T01:57:38;14.88;;;8.43;;
25163;SDS011;13440;50.860;13.662;2022-11-23T02:00:06;13.88;;;8.77;;
25163;SDS011;13440;50.860;13.662;2022-11-23T02:02:38;14.77;;;8.65;;
25163;SDS011;13440;50.860;13.662;2022-11-23T02:05:05;12.68;;;7.88;;
25163;SDS011;13440;50.860;13.662;2022-11-23T02:07:30;13.60;;;8.32;;
25163;SDS011;13440;50.860;13.662;2022-11-23T02:09:56;14.30;;;8.30;;
25163;SDS011;13440;50.860;13.662;2022-11-23T02:12:22;11.90;;;8.07;;
25163;SDS011;13440;50.860;13.662;2022-11-23T02:14:47;12.45;;;8.25;;
25163;SDS011;13440;50.860;13.662;2022-11-23T02:17:12;12.52;;;8.48;;
25163;SDS011;13440;50.860;13.662;2022-11-23T02:20:20;14.00;;;8.38;;
25163;SDS011;13440;50.860;13.662;2022-11-23T02:25:14;12.88;;;7.18;;
25163;SDS011;13440;50.860;13.662;2022-11-23T02:27:41;13.32;;;7.43;;
25163;SDS011;13440;50.860;13.662;2022-11-23T02:30:07;14.10;;;8.23;;
25163;SDS011;13440;50.860;13.662;2022-11-23T02:32:33;15.18;;;8.27;;
25163;SDS011;13440;50.860;13.662;2022-11-23T02:34:58;12.80;;;8.38;;
25163;SDS011;13440;50.860;13.662;2022-11-23T02:37:24;11.05;;;7.03;;
25163;SDS011;13440;50.860;13.662;2022-11-23T02:39:51;11.60;;;7.35;;
25163;SDS011;13440;50.860;13.662;2022-11-23T02:42:17;12.95;;;7.90;;
25163;SDS011;13440;50.860;13.662;2022-11-23T02:47:08;11.98;;;7.30;;
25163;SDS011;13440;50.860;13.662;2022-11-23T02:49:34;13.35;;;8.63;;
25163;SDS011;13440;50.860;13.662;2022-11-23T02:51:59;13.88;;;8.52;;
25163;SDS011;13440;50.860;13.662;2022-11-23T02:54:25;11.25;;;7.55;;
25163;SDS011;13440;50.860;13.662;2022-11-23T02:56:51;13.35;;;8.35;;
25163;SDS011;13440;50.860;13.662;2022-11-23T02:59:17;11.27;;;6.53;;
25163;SDS011;13440;50.860;13.662;2022-11-23T03:01:42;11.15;;;6.57;;
25163;SDS011;13440;50.860;13.662;2022-11-23T03:04:07;9.93;;;6.63;;
25163;SDS011;13440;50.860;13.662;2022-11-23T03:06:33;10.73;;;6.65;;
25163;SDS011;13440;50.860;13.662;2022-11-23T03:08:58;8.32;;;5.60;;
25163;SDS011;13440;50.860;13.662;2022-11-23T03:11:24;9.98;;;6.60;;
25163;SDS011;13440;50.860;13.662;2022-11-23T03:13:49;9.57;;;6.57;;
25163;SDS011;13440;50.860;13.662;2022-11-23T03:16:18;9.07;;;5.72;;
25163;SDS011;13440;50.860;13.662;2022-11-23T03:18:46;7.47;;;5.53;;
25163;SDS011;13440;50.860;13.662;2022-11-23T03:21:11;10.35;;;6.25;;
25163;SDS011;13440;50.860;13.662;2022-11-23T03:23:37;10.07;;;5.80;;
25163;SDS011;13440;50.860;13.662;2022-11-23T03:26:05;8.88;;;6.03;;
25163;SDS011;13440;50.860;13.662;2022-11-23T03:28:35;13.30;;;5.68;;
25163;SDS011;13440;50.860;13.662;2022-11-23T03:31:01;8.13;;;5.40;;
25163;SDS011;13440;50.860;13.662;2022-11-23T03:33:26;8.88;;;6.82;;
25163;SDS011;13440;50.860;13.662;2022-11-23T03:35:52;8.35;;;5.50;;
25163;SDS011;13440;50.860;13.662;2022-11-23T03:38:21;7.57;;;5.00;;
25163;SDS011;13440;50.860;13.662;2022-11-23T03:40:46;8.05;;;5.53;;
25163;SDS011;13440;50.860;13.662;2022-11-23T03:43:18;6.93;;;4.95;;
25163;SDS011;13440;50.860;13.662;2022-11-23T03:45:43;8.77;;;5.28;;
25163;SDS011;13440;50.860;13.662;2022-11-23T03:48:09;8.43;;;5.60;;
25163;SDS011;13440;50.860;13.662;2022-11-23T03:50:35;7.60;;;5.13;;
25163;SDS011;13440;50.860;13.662;2022-11-23T03:53:00;8.52;;;5.20;;
25163;SDS011;13440;50.860;13.662;2022-11-23T03:55:27;6.78;;;4.85;;
25163;SDS011;13440;50.860;13.662;2022-11-23T03:57:52;6.38;;;4.70;;
25163;SDS011;13440;50.860;13.662;2022-11-23T04:00:24;7.55;;;4.75;;
25163;SDS011;13440;50.860;13.662;2022-11-23T04:02:52;6.93;;;4.72;;
25163;SDS011;13440;50.860;13.662;2022-11-23T04:05:43;7.70;;;4.85;;
25163;SDS011;13440;50.860;13.662;2022-11-23T04:08:34;7.32;;;4.75;;
25163;SDS011;13440;50.860;13.662;2022-11-23T04:11:05;6.90;;;4.57;;
25163;SDS011;13440;50.860;13.662;2022-11-23T04:13:39;7.22;;;4.75;;
25163;SDS011;13440;50.860;13.662;2022-11-23T04:16:05;5.93;;;4.20;;
25163;SDS011;13440;50.860;13.662;2022-11-23T04:18:31;5.88;;;4.05;;
25163;SDS011;13440;50.860;13.662;2022-11-23T04:20:57;6.55;;;4.50;;
25163;SDS011;13440;50.860;13.662;2022-11-23T04:23:22;6.93;;;4.47;;
25163;SDS011;13440;50.860;13.662;2022-11-23T04:25:48;6.32;;;4.25;;
25163;SDS011;13440;50.860;13.662;2022-11-23T04:28:14;6.82;;;4.20;;
25163;SDS011;13440;50.860;13.662;2022-11-23T04:30:40;5.88;;;4.15;;
25163;SDS011;13440;50.860;13.662;2022-11-23T04:33:05;7.03;;;4.53;;
25163;SDS011;13440;50.860;13.662;2022-11-23T04:35:31;6.57;;;4.32;;
25163;SDS011;13440;50.860;13.662;2022-11-23T04:37:57;6.68;;;4.35;;
25163;SDS011;13440;50.860;13.662;2022-11-23T04:40:25;6.10;;;4.25;;
25163;SDS011;13440;50.860;13.662;2022-11-23T04:42:59;7.32;;;4.72;;
25163;SDS011;13440;50.860;13.662;2022-11-23T04:45:25;9.20;;;5.10;;
25163;SDS011;13440;50.860;13.662;2022-11-23T04:47:52;8.98;;;4.70;;
25163;SDS011;13440;50.860;13.662;2022-11-23T04:50:18;7.90;;;5.07;;
25163;SDS011;13440;50.860;13.662;2022-11-23T04:52:49;6.45;;;4.50;;
25163;SDS011;13440;50.860;13.662;2022-11-23T04:55:18;7.38;;;4.97;;
25163;SDS011;13440;50.860;13.662;2022-11-23T04:57:51;5.70;;;4.10;;
25163;SDS011;13440;50.860;13.662;2022-11-23T05:00:17;6.63;;;4.20;;
25163;SDS011;13440;50.860;13.662;2022-11-23T05:02:43;8.02;;;4.53;;
25163;SDS011;13440;50.860;13.662;2022-11-23T05:05:19;8.10;;;4.97;;
25163;SDS011;13440;50.860;13.662;2022-11-23T05:07:44;7.18;;;4.65;;
25163;SDS011;13440;50.860;13.662;2022-11-23T05:10:09;5.97;;;4.10;;
25163;SDS011;13440;50.860;13.662;2022-11-23T05:12:35;8.25;;;4.70;;
25163;SDS011;13440;50.860;13.662;2022-11-23T05:15:01;6.70;;;5.00;;
25163;SDS011;13440;50.860;13.662;2022-11-23T05:17:32;8.88;;;5.03;;
25163;SDS011;13440;50.860;13.662;2022-11-23T05:19:58;5.80;;;4.40;;
25163;SDS011;13440;50.860;13.662;2022-11-23T05:22:26;6.78;;;4.50;;
25163;SDS011;13440;50.860;13.662;2022-11-23T05:24:52;5.70;;;4.45;;
25163;SDS011;13440;50.860;13.662;2022-11-23T05:27:20;6.45;;;4.55;;
25163;SDS011;13440;50.860;13.662;2022-11-23T05:29:45;7.90;;;4.65;;
25163;SDS011;13440;50.860;13.662;2022-11-23T05:32:10;6.78;;;4.78;;
25163;SDS011;13440;50.860;13.662;2022-11-23T05:34:36;6.70;;;4.63;;
25163;SDS011;13440;50.860;13.662;2022-11-23T05:37:03;8.60;;;5.15;;
25163;SDS011;13440;50.860;13.662;2022-11-23T05:39:28;8.40;;;5.00;;
25163;SDS011;13440;50.860;13.662;2022-11-23T05:41:53;6.75;;;5.07;;
25163;SDS011;13440;50.860;13.662;2022-11-23T05:44:28;6.68;;;4.88;;
25163;SDS011;13440;50.860;13.662;2022-11-23T05:46:53;7.63;;;4.90;;
25163;SDS011;13440;50.860;13.662;2022-11-23T05:49:19;7.65;;;4.97;;
25163;SDS011;13440;50.860;13.662;2022-11-23T05:51:46;6.47;;;4.75;;
25163;SDS011;13440;50.860;13.662;2022-11-23T05:54:11;8.32;;;5.05;;
25163;SDS011;13440;50.860;13.662;2022-11-23T05:56:40;7.07;;;5.05;;
25163;SDS011;13440;50.860;13.662;2022-11-23T05:59:29;7.43;;;4.43;;
25163;SDS011;13440;50.860;13.662;2022-11-23T06:01:59;6.28;;;4.55;;
25163;SDS011;13440;50.860;13.662;2022-11-23T06:04:29;6.53;;;4.47;;
25163;SDS011;13440;50.860;13.662;2022-11-23T06:06:56;7.07;;;4.82;;
25163;SDS011;13440;50.860;13.662;2022-11-23T06:09:26;8.45;;;4.88;;
25163;SDS011;13440;50.860;13.662;2022-11-23T06:11:52;6.78;;;4.53;;
25163;SDS011;13440;50.860;13.662;2022-11-23T06:14:18;7.65;;;4.88;;
25163;SDS011;13440;50.860;13.662;2022-11-23T06:16:45;6.97;;;4.68;;
25163;SDS011;13440;50.860;13.662;2022-11-23T06:19:26;5.72;;;4.40;;
25163;SDS011;13440;50.860;13.662;2022-11-23T06:21:54;5.28;;;3.97;;
25163;SDS011;13440;50.860;13.662;2022-11-23T06:24:20;9.35;;;4.75;;
25163;SDS011;13440;50.860;13.662;2022-11-23T06:26:57;6.80;;;4.45;;
25163;SDS011;13440;50.860;13.662;2022-11-23T06:29:23;5.25;;;3.70;;
25163;SDS011;13440;50.860;13.662;2022-11-23T06:31:48;5.68;;;3.90;;
25163;SDS011;13440;50.860;13.662;2022-11-23T06:34:13;6.10;;;4.07;;
25163;SDS011;13440;50.860;13.662;2022-11-23T06:36:39;4.22;;;3.30;;
25163;SDS011;13440;50.860;13.662;2022-11-23T06:39:05;5.10;;;3.30;;
25163;SDS011;13440;50.860;13.662;2022-11-23T06:41:32;4.43;;;3.35;;
25163;SDS011;13440;50.860;13.662;2022-11-23T06:44:00;5.18;;;3.80;;
25163;SDS011;13440;50.860;13.662;2022-11-23T06:46:36;5.20;;;3.45;;
25163;SDS011;13440;50.860;13.662;2022-11-23T06:49:01;4.50;;;3.55;;
25163;SDS011;13440;50.860;13.662;2022-11-23T06:51:26;4.63;;;3.47;;
25163;SDS011;13440;50.860;13.662;2022-11-23T06:53:52;4.35;;;3.15;;
25163;SDS011;13440;50.860;13.662;2022-11-23T06:56:18;4.65;;;3.35;;
25163;SDS011;13440;50.860;13.662;2022-11-23T06:58:44;5.30;;;3.88;;
25163;SDS011;13440;50.860;13.662;2022-11-23T07:01:14;4.95;;;3.60;;
25163;SDS011;13440;50.860;13.662;2022-11-23T07:03:46;6.13;;;3.40;;
25163;SDS011;13440;50.860;13.662;2022-11-23T07:06:37;5.07;;;3.60;;
25163;SDS011;13440;50.860;13.662;2022-11-23T07:09:06;5.32;;;3.83;;
25163;SDS011;13440;50.860;13.662;2022-11-23T07:11:49;5.15;;;4.10;;
25163;SDS011;13440;50.860;13.662;2022-11-23T07:14:15;4.65;;;3.67;;
25163;SDS011;13440;50.860;13.662;2022-11-23T07:16:44;6.03;;;4.00;;
25163;SDS011;13440;50.860;13.662;2022-11-23T07:19:09;5.05;;;3.85;;
25163;SDS011;13440;50.860;13.662;2022-11-23T07:21:34;5.50;;;4.20;;
25163;SDS011;13440;50.860;13.662;2022-11-23T07:24:00;6.18;;;4.00;;
25163;SDS011;13440;50.860;13.662;2022-11-23T07:26:25;5.53;;;3.90;;
25163;SDS011;13440;50.860;13.662;2022-11-23T07:28:51;6.07;;;4.13;;
25163;SDS011;13440;50.860;13.662;2022-11-23T07:31:16;5.57;;;4.38;;
25163;SDS011;13440;50.860;13.662;2022-11-23T07:33:45;6.38;;;3.90;;
25163;SDS011;13440;50.860;13.662;2022-11-23T07:36:10;6.57;;;3.80;;
25163;SDS011;13440;50.860;13.662;2022-11-23T07:38:38;5.32;;;3.85;;
25163;SDS011;13440;50.860;13.662;2022-11-23T07:41:05;5.35;;;3.60;;
25163;SDS011;13440;50.860;13.662;2022-11-23T07:43:49;5.57;;;4.18;;
25163;SDS011;13440;50.860;13.662;2022-11-23T07:46:15;6.35;;;3.78;;
25163;SDS011;13440;50.860;13.662;2022-11-23T07:48:40;4.78;;;3.42;;
25163;SDS011;13440;50.860;13.662;2022-11-23T07:51:05;4.80;;;3.78;;
25163;SDS011;13440;50.860;13.662;2022-11-23T07:53:31;6.18;;;3.80;;
25163;SDS011;13440;50.860;13.662;2022-11-23T07:55:56;4.30;;;3.13;;
25163;SDS011;13440;50.860;13.662;2022-11-23T07:58:24;4.70;;;3.45;;
25163;SDS011;13440;50.860;13.662;2022-11-23T08:00:50;4.45;;;3.47;;
25163;SDS011;13440;50.860;13.662;2022-11-23T08:03:15;4.53;;;3.38;;
25163;SDS011;13440;50.860;13.662;2022-11-23T08:05:40;4.78;;;3.38;;
25163;SDS011;13440;50.860;13.662;2022-11-23T08:08:06;4.80;;;3.00;;
25163;SDS011;13440;50.860;13.662;2022-11-23T08:10:31;4.95;;;3.17;;
25163;SDS011;13440;50.860;13.662;2022-11-23T08:12:57;3.33;;;2.80;;
25163;SDS011;13440;50.860;13.662;2022-11-23T08:15:22;4.75;;;3.30;;
25163;SDS011;13440;50.860;13.662;2022-11-23T08:17:48;3.60;;;3.10;;
25163;SDS011;13440;50.860;13.662;2022-11-23T08:20:13;3.85;;;2.97;;
25163;SDS011;13440;50.860;13.662;2022-11-23T08:22:38;5.28;;;3.78;;
25163;SDS011;13440;50.860;13.662;2022-11-23T08:25:04;5.53;;;3.50;;
25163;SDS011;13440;50.860;13.662;2022-11-23T08:27:29;5.03;;;3.38;;
25163;SDS011;13440;50.860;13.662;2022-11-23T08:29:54;5.35;;;3.40;;
25163;SDS011;13440;50.860;13.662;2022-11-23T08:32:20;6.28;;;3.58;;
25163;SDS011;13440;50.860;13.662;2022-11-23T08:34:45;7.00;;;3.85;;
25163;SDS011;13440;50.860;13.662;2022-11-23T08:37:10;7.65;;;4.18;;
25163;SDS011;13440;50.860;13.662;2022-11-23T08:39:35;4.15;;;3.47;;
25163;SDS011;13440;50.860;13.662;2022-11-23T08:42:01;5.50;;;3.92;;
25163;SDS011;13440;50.860;13.662;2022-11-23T08:44:26;5.30;;;3.80;;
25163;SDS011;13440;50.860;13.662;2022-11-23T08:46:53;7.28;;;3.88;;
25163;SDS011;13440;50.860;13.662;2022-11-23T08:49:18;7.20;;;4.57;;
25163;SDS011;13440;50.860;13.662;2022-11-23T08:51:43;6.05;;;4.20;;
25163;SDS011;13440;50.860;13.662;2022-11-23T08:54:09;7.07;;;4.47;;
25163;SDS011;13440;50.860;13.662;2022-11-23T08:56:34;6.53;;;4.35;;
25163;SDS011;13440;50.860;13.662;2022-11-23T08:59:00;5.63;;;3.83;;
25163;SDS011;13440;50.860;13.662;2022-11-23T09:01:25;6.30;;;4.40;;
25163;SDS011;13440;50.860;13.662;2022-11-23T09:03:50;8.63;;;4.75;;
25163;SDS011;13440;50.860;13.662;2022-11-23T09:06:15;8.30;;;4.68;;
25163;SDS011;13440;50.860;13.662;2022-11-23T09:08:41;9.48;;;5.68;;
25163;SDS011;13440;50.860;13.662;2022-11-23T09:11:06;7.55;;;5.07;;
25163;SDS011;13440;50.860;13.662;2022-11-23T09:13:35;7.75;;;5.25;;
25163;SDS011;13440;50.860;13.662;2022-11-23T09:16:01;9.10;;;5.25;;
25163;SDS011;13440;50.860;13.662;2022-11-23T09:18:27;10.35;;;6.50;;
25163;SDS011;13440;50.860;13.662;2022-11-23T09:20:52;8.30;;;5.63;;
25163;SDS011;13440;50.860;13.662;2022-11-23T09:23:18;8.45;;;6.10;;
25163;SDS011;13440;50.860;13.662;2022-11-23T09:25:43;9.55;;;6.15;;
25163;SDS011;13440;50.860;13.662;2022-11-23T09:28:12;10.05;;;5.80;;
25163;SDS011;13440;50.860;13.662;2022-11-23T09:30:39;8.95;;;6.07;;
25163;SDS011;13440;50.860;13.662;2022-11-23T09:33:04;9.85;;;5.90;;
25163;SDS011;13440;50.860;13.662;2022-11-23T09:35:29;29.85;;;27.05;;
25163;SDS011;13440;50.860;13.662;2022-11-23T09:37:55;20.92;;;18.80;;
25163;SDS011;13440;50.860;13.662;2022-11-23T09:40:21;9.13;;;6.63;;
25163;SDS011;13440;50.860;13.662;2022-11-23T09:45:29;8.35;;;5.88;;
25163;SDS011;13440;50.860;13.662;2022-11-23T09:50:33;10.70;;;5.95;;
25163;SDS011;13440;50.860;13.662;2022-11-23T09:53:08;8.02;;;5.05;;
25163;SDS011;13440;50.860;13.662;2022-11-23T09:55:41;8.32;;;5.70;;
25163;SDS011;13440;50.860;13.662;2022-11-23T09:58:17;7.55;;;4.93;;
25163;SDS011;13440;50.860;13.662;2022-11-23T10:00:54;7.78;;;5.30;;
25163;SDS011;13440;50.860;13.662;2022-11-23T10:03:23;6.60;;;4.68;;
25163;SDS011;13440;50.860;13.662;2022-11-23T10:08:30;8.07;;;4.75;;
25163;SDS011;13440;50.860;13.662;2022-11-23T10:13:43;7.35;;;4.32;;
25163;SDS011;13440;50.860;13.662;2022-11-23T10:23:50;6.80;;;3.97;;
25163;SDS011;13440;50.860;13.662;2022-11-23T10:26:18;7.50;;;3.88;;
25163;SDS011;13440;50.860;13.662;2022-11-23T10:28:46;5.93;;;3.47;;
25163;SDS011;13440;50.860;13.662;2022-11-23T10:31:16;6.18;;;4.25;;
25163;SDS011;13440;50.860;13.662;2022-11-23T10:36:16;6.57;;;3.80;;
25163;SDS011;13440;50.860;13.662;2022-11-23T10:38:41;5.30;;;3.50;;
25163;SDS011;13440;50.860;13.662;2022-11-23T10:41:11;5.28;;;3.60;;
25163;SDS011;13440;50.860;13.662;2022-11-23T10:48:48;7.27;;;3.70;;
25163;SDS011;13440;50.860;13.662;2022-11-23T10:51:16;5.50;;;3.38;;
25163;SDS011;13440;50.860;13.662;2022-11-23T10:53:49;4.40;;;3.22;;
25163;SDS011;13440;50.860;13.662;2022-11-23T10:56:15;6.22;;;4.10;;
25163;SDS011;13440;50.860;13.662;2022-11-23T10:58:44;6.10;;;3.45;;
25163;SDS011;13440;50.860;13.662;2022-11-23T11:01:14;4.57;;;2.88;;
25163;SDS011;13440;50.860;13.662;2022-11-23T11:03:40;5.32;;;3.17;;
25163;SDS011;13440;50.860;13.662;2022-11-23T11:06:05;5.35;;;3.33;;
25163;SDS011;13440;50.860;13.662;2022-11-23T11:08:32;6.50;;;2.65;;
25163;SDS011;13440;50.860;13.662;2022-11-23T11:10:59;4.70;;;2.60;;
25163;SDS011;13440;50.860;13.662;2022-11-23T11:13:27;5.70;;;2.90;;
25163;SDS011;13440;50.860;13.662;2022-11-23T11:16:03;5.80;;;2.20;;
25163;SDS011;13440;50.860;13.662;2022-11-23T11:18:30;5.38;;;1.90;;
25163;SDS011;13440;50.860;13.662;2022-11-23T11:20:57;5.50;;;2.20;;
25163;SDS011;13440;50.860;13.662;2022-11-23T11:23:23;5.85;;;2.42;;
25163;SDS011;13440;50.860;13.662;2022-11-23T11:25:49;3.38;;;1.60;;
25163;SDS011;13440;50.860;13.662;2022-11-23T11:30:50;5.38;;;1.88;;
25163;SDS011;13440;50.860;13.662;2022-11-23T11:33:22;4.32;;;1.85;;
25163;SDS011;13440;50.860;13.662;2022-11-23T11:35:50;6.18;;;1.70;;
25163;SDS011;13440;50.860;13.662;2022-11-23T11:38:23;7.82;;;2.22;;
25163;SDS011;13440;50.860;13.662;2022-11-23T11:40:49;6.00;;;1.92;;
25163;SDS011;13440;50.860;13.662;2022-11-23T11:43:28;3.47;;;1.80;;
25163;SDS011;13440;50.860;13.662;2022-11-23T11:45:57;7.13;;;2.00;;
25163;SDS011;13440;50.860;13.662;2022-11-23T11:49:08;4.45;;;1.70;;
25163;SDS011;13440;50.860;13.662;2022-11-23T11:51:12;4.97;;;1.90;;
25163;SDS011;13440;50.860;13.662;2022-11-23T11:53:45;5.07;;;1.70;;
25163;SDS011;13440;50.860;13.662;2022-11-23T11:58:48;3.55;;;1.60;;
25163;SDS011;13440;50.860;13.662;2022-11-23T12:01:28;3.75;;;1.63;;
25163;SDS011;13440;50.860;13.662;2022-11-23T12:03:58;4.28;;;1.65;;
25163;SDS011;13440;50.860;13.662;2022-11-23T12:09:29;4.68;;;1.60;;
25163;SDS011;13440;50.860;13.662;2022-11-23T12:11:56;10.43;;;1.95;;
25163;SDS011;13440;50.860;13.662;2022-11-23T12:14:22;3.40;;;1.60;;
25163;SDS011;13440;50.860;13.662;2022-11-23T12:19:33;3.40;;;1.45;;
25163;SDS011;13440;50.860;13.662;2022-11-23T12:24:53;2.78;;;1.60;;
25163;SDS011;13440;50.860;13.662;2022-11-23T12:27:35;4.88;;;2.05;;
25163;SDS011;13440;50.860;13.662;2022-11-23T12:30:14;2.83;;;1.73;;
25163;SDS011;13440;50.860;13.662;2022-11-23T12:38:25;4.63;;;2.05;;
25163;SDS011;13440;50.860;13.662;2022-11-23T12:41:02;6.43;;;2.20;;
25163;SDS011;13440;50.860;13.662;2022-11-23T12:43:31;5.72;;;2.22;;
25163;SDS011;13440;50.860;13.662;2022-11-23T12:46:05;5.22;;;2.28;;
25163;SDS011;13440;50.860;13.662;2022-11-23T12:48:39;4.45;;;2.42;;
25163;SDS011;13440;50.860;13.662;2022-11-23T12:58:32;3.35;;;2.30;;
25163;SDS011;13440;50.860;13.662;2022-11-23T13:06:41;4.55;;;2.40;;
25163;SDS011;13440;50.860;13.662;2022-11-23T13:16:56;7.90;;;3.47;;
25163;SDS011;13440;50.860;13.662;2022-11-23T13:19:39;5.13;;;3.60;;
25163;SDS011;13440;50.860;13.662;2022-11-23T13:22:13;8.10;;;4.32;;
25163;SDS011;13440;50.860;13.662;2022-11-23T13:24:39;5.90;;;4.05;;
25163;SDS011;13440;50.860;13.662;2022-11-23T13:34:59;9.00;;;4.65;;
25163;SDS011;13440;50.860;13.662;2022-11-23T13:37:24;7.85;;;4.10;;
25163;SDS011;13440;50.860;13.662;2022-11-23T13:42:15;9.07;;;4.78;;
25163;SDS011;13440;50.860;13.662;2022-11-23T13:44:41;9.70;;;4.45;;
25163;SDS011;13440;50.860;13.662;2022-11-23T13:47:17;8.27;;;4.63;;
25163;SDS011;13440;50.860;13.662;2022-11-23T13:57:17;9.60;;;4.80;;
25163;SDS011;13440;50.860;13.662;2022-11-23T13:59:43;7.95;;;4.05;;
25163;SDS011;13440;50.860;13.662;2022-11-23T14:04:35;7.93;;;4.18;;
25163;SDS011;13440;50.860;13.662;2022-11-23T14:14:20;9.80;;;4.30;;
25163;SDS011;13440;50.860;13.662;2022-11-23T14:22:02;10.75;;;5.10;;
25163;SDS011;13440;50.860;13.662;2022-11-23T14:27:25;12.32;;;6.85;;
25163;SDS011;13440;50.860;13.662;2022-11-23T14:35:22;10.38;;;5.95;;
25163;SDS011;13440;50.860;13.662;2022-11-23T14:43:09;11.48;;;6.35;;
25163;SDS011;13440;50.860;13.662;2022-11-23T14:45:37;10.95;;;6.35;;
25163;SDS011;13440;50.860;13.662;2022-11-23T14:51:00;14.25;;;7.25;;
25163;SDS011;13440;50.860;13.662;2022-11-23T14:53:29;14.45;;;7.55;;
25163;SDS011;13440;50.860;13.662;2022-11-23T14:55:56;11.60;;;7.90;;
25163;SDS011;13440;50.860;13.662;2022-11-23T14:58:22;14.10;;;8.32;;
25163;SDS011;13440;50.860;13.662;2022-11-23T15:00:49;15.73;;;8.93;;
25163;SDS011;13440;50.860;13.662;2022-11-23T15:03:16;14.93;;;8.07;;
25163;SDS011;13440;50.860;13.662;2022-11-23T15:08:43;14.77;;;8.57;;
25163;SDS011;13440;50.860;13.662;2022-11-23T15:11:13;16.17;;;9.15;;
25163;SDS011;13440;50.860;13.662;2022-11-23T15:13:46;15.68;;;9.57;;
25163;SDS011;13440;50.860;13.662;2022-11-23T15:16:12;16.13;;;9.65;;
25163;SDS011;13440;50.860;13.662;2022-11-23T15:18:38;17.13;;;9.77;;
25163;SDS011;13440;50.860;13.662;2022-11-23T15:21:11;18.48;;;11.43;;
25163;SDS011;13440;50.860;13.662;2022-11-23T15:23:41;19.52;;;10.43;;
25163;SDS011;13440;50.860;13.662;2022-11-23T15:26:11;18.52;;;10.93;;
25163;SDS011;13440;50.860;13.662;2022-11-23T15:28:37;19.60;;;10.75;;
25163;SDS011;13440;50.860;13.662;2022-11-23T15:33:49;67.50;;;29.50;;
25163;SDS011;13440;50.860;13.662;2022-11-23T15:36:17;107.85;;;45.08;;
25163;SDS011;13440;50.860;13.662;2022-11-23T15:38:45;130.52;;;59.33;;
25163;SDS011;13440;50.860;13.662;2022-11-23T15:41:11;116.00;;;58.20;;
25163;SDS011;13440;50.860;13.662;2022-11-23T15:43:36;65.43;;;40.10;;
25163;SDS011;13440;50.860;13.662;2022-11-23T15:46:15;51.80;;;32.50;;
25163;SDS011;13440;50.860;13.662;2022-11-23T15:48:40;43.15;;;25.45;;
25163;SDS011;13440;50.860;13.662;2022-11-23T15:51:06;39.35;;;26.15;;
25163;SDS011;13440;50.860;13.662;2022-11-23T15:53:48;48.50;;;31.13;;
25163;SDS011;13440;50.860;13.662;2022-11-23T15:56:19;33.05;;;20.25;;
25163;SDS011;13440;50.860;13.662;2022-11-23T15:58:45;36.22;;;25.05;;
25163;SDS011;13440;50.860;13.662;2022-11-23T16:01:12;31.90;;;22.30;;
25163;SDS011;13440;50.860;13.662;2022-11-23T16:03:46;27.90;;;19.15;;
25163;SDS011;13440;50.860;13.662;2022-11-23T16:06:17;32.03;;;19.58;;
25163;SDS011;13440;50.860;13.662;2022-11-23T16:08:42;21.83;;;13.63;;
25163;SDS011;13440;50.860;13.662;2022-11-23T16:16:36;21.67;;;12.88;;
25163;SDS011;13440;50.860;13.662;2022-11-23T16:19:01;19.88;;;12.88;;
25163;SDS011;13440;50.860;13.662;2022-11-23T16:21:28;18.90;;;11.60;;
25163;SDS011;13440;50.860;13.662;2022-11-23T16:23:55;19.83;;;12.30;;
25163;SDS011;13440;50.860;13.662;2022-11-23T16:26:28;20.52;;;13.02;;
25163;SDS011;13440;50.860;13.662;2022-11-23T16:28:54;18.97;;;12.60;;
25163;SDS011;13440;50.860;13.662;2022-11-23T16:31:36;19.98;;;12.90;;
25163;SDS011;13440;50.860;13.662;2022-11-23T16:34:11;19.83;;;13.90;;
25163;SDS011;13440;50.860;13.662;2022-11-23T16:36:37;23.50;;;14.27;;
25163;SDS011;13440;50.860;13.662;2022-11-23T16:39:02;19.35;;;12.32;;
25163;SDS011;13440;50.860;13.662;2022-11-23T16:41:28;24.75;;;13.68;;
25163;SDS011;13440;50.860;13.662;2022-11-23T16:43:53;20.83;;;12.25;;
25163;SDS011;13440;50.860;13.662;2022-11-23T16:46:18;20.52;;;12.52;;